createdAt,value
2024-04-11T00:00:24.918Z,0.60
2024-04-11T00:02:52.647Z,0.70
2024-04-11T00:05:21.581Z,0.60
2024-04-11T00:07:48.612Z,0.70
2024-04-11T00:10:15.409Z,0.70
2024-04-11T00:12:42.348Z,0.60
2024-04-11T00:15:09.482Z,0.60
2024-04-11T00:17:36.453Z,0.60
2024-04-11T00:20:05.225Z,0.60
2024-04-11T00:22:32.333Z,0.60
2024-04-11T00:24:59.023Z,0.65
2024-04-11T00:27:25.944Z,0.70
2024-04-11T00:29:52.691Z,0.60
2024-04-11T00:32:19.505Z,0.60
2024-04-11T00:34:46.295Z,0.68
2024-04-11T00:37:13.202Z,0.60
2024-04-11T00:39:40.256Z,0.57
2024-04-11T00:42:08.676Z,0.60
2024-04-11T00:44:38.842Z,0.70
2024-04-11T00:47:10.805Z,0.55
2024-04-11T00:49:39.754Z,0.60
2024-04-11T00:52:09.065Z,0.60
2024-04-11T00:54:39.515Z,0.70
2024-04-11T00:57:09.591Z,0.60
2024-04-11T00:59:42.196Z,0.60
2024-04-11T01:02:13.390Z,0.60
2024-04-11T01:04:40.945Z,0.70
2024-04-11T01:07:10.336Z,0.60
2024-04-11T01:09:47.159Z,0.60
2024-04-11T01:12:19.170Z,0.60
2024-04-11T01:14:48.811Z,0.60
2024-04-11T01:17:22.761Z,0.60
2024-04-11T01:19:49.838Z,0.70
2024-04-11T01:22:20.202Z,0.60
2024-04-11T01:24:48.248Z,0.60
2024-04-11T01:27:18.395Z,0.60
2024-04-11T01:29:45.461Z,0.60
2024-04-11T01:32:12.421Z,0.60
2024-04-11T01:34:39.723Z,0.60
2024-04-11T01:37:06.943Z,0.70
2024-04-11T01:39:33.796Z,0.68
2024-04-11T01:42:00.844Z,0.70
2024-04-11T01:44:30.087Z,0.60
2024-04-11T01:46:57.305Z,0.60
2024-04-11T01:49:24.430Z,0.73
2024-04-11T01:51:51.163Z,0.70
2024-04-11T01:54:18.179Z,0.60
2024-04-11T01:56:45.264Z,0.60
2024-04-11T01:59:12.037Z,0.60
2024-04-11T02:01:39.175Z,0.60
2024-04-11T02:04:07.437Z,0.60
2024-04-11T02:06:37.802Z,0.70
2024-04-11T02:09:11.349Z,0.60
2024-04-11T02:11:42.285Z,0.70
2024-04-11T02:14:09.120Z,0.60
2024-04-11T02:16:37.757Z,0.60
2024-04-11T02:19:09.452Z,0.70
2024-04-11T02:21:39.462Z,0.85
2024-04-11T02:24:08.007Z,0.60
2024-04-11T02:26:36.221Z,0.60
2024-04-11T02:29:03.918Z,0.70
2024-04-11T02:31:31.040Z,0.70
2024-04-11T02:34:02.184Z,0.70
2024-04-11T02:36:31.869Z,0.70
2024-04-11T02:39:01.276Z,0.70
2024-04-11T02:41:30.984Z,0.60
2024-04-11T02:43:59.123Z,0.70
2024-04-11T02:46:26.975Z,0.60
2024-04-11T02:48:54.964Z,0.70
2024-04-11T02:51:24.417Z,0.70
2024-04-11T02:53:52.361Z,0.60
2024-04-11T02:56:19.336Z,0.70
2024-04-11T02:58:46.044Z,0.60
2024-04-11T03:01:15.563Z,0.70
2024-04-11T03:03:42.924Z,0.65
2024-04-11T03:06:13.550Z,0.60
2024-04-11T03:08:44.274Z,0.60
2024-04-11T03:11:12.469Z,0.75
2024-04-11T03:13:40.369Z,0.70
2024-04-11T03:16:08.112Z,0.70
2024-04-11T03:18:37.899Z,0.70
2024-04-11T03:21:05.123Z,0.60
2024-04-11T03:23:32.778Z,0.70
2024-04-11T03:26:00.180Z,0.70
2024-04-11T03:28:28.311Z,0.70
2024-04-11T03:30:55.145Z,0.60
2024-04-11T03:33:21.976Z,0.70
2024-04-11T03:35:56.489Z,0.70
2024-04-11T03:38:26.103Z,0.70
2024-04-11T03:41:12.046Z,0.60
2024-04-11T03:43:40.811Z,0.70
2024-04-11T03:46:22.717Z,0.70
2024-04-11T03:48:52.629Z,0.75
2024-04-11T03:51:21.220Z,0.70
2024-04-11T03:53:51.131Z,0.70
2024-04-11T03:56:20.206Z,0.63
2024-04-11T03:58:47.411Z,0.70
2024-04-11T04:01:14.797Z,0.70
2024-04-11T04:03:42.498Z,0.70
2024-04-11T04:06:12.104Z,0.70
2024-04-11T04:08:40.121Z,0.80
2024-04-11T04:11:10.039Z,0.70
2024-04-11T04:13:38.529Z,0.70
2024-04-11T04:16:13.410Z,0.60
2024-04-11T04:18:41.931Z,0.70
2024-04-11T04:21:09.459Z,0.90
2024-04-11T04:23:36.810Z,0.80
2024-04-11T04:26:07.523Z,0.70
2024-04-11T04:28:35.765Z,0.70
2024-04-11T04:31:14.557Z,0.70
2024-04-11T04:33:41.745Z,0.70
2024-04-11T04:36:09.331Z,0.77
2024-04-11T04:38:36.127Z,0.60
2024-04-11T04:41:03.386Z,0.75
2024-04-11T04:43:31.332Z,0.70
2024-04-11T04:46:02.038Z,0.70
2024-04-11T04:48:30.971Z,0.90
2024-04-11T04:50:57.975Z,0.80
2024-04-11T04:53:26.579Z,0.70
2024-04-11T04:55:56.466Z,0.70
2024-04-11T04:58:23.190Z,0.70
2024-04-11T05:00:50.016Z,0.70
2024-04-11T05:03:16.998Z,0.80
2024-04-11T05:05:46.047Z,0.80
2024-04-11T05:08:15.138Z,0.80
2024-04-11T05:10:42.408Z,0.90
2024-04-11T05:13:11.093Z,0.80
2024-04-11T05:15:38.628Z,0.77
2024-04-11T05:18:06.347Z,0.80
2024-04-11T05:20:37.956Z,0.80
2024-04-11T05:23:07.760Z,0.70
2024-04-11T05:25:34.833Z,0.90
2024-04-11T05:28:01.584Z,0.82
2024-04-11T05:30:28.844Z,0.80
2024-04-11T05:32:58.620Z,0.70
2024-04-11T05:35:26.238Z,0.80
2024-04-11T05:37:56.954Z,0.70
2024-04-11T05:40:23.735Z,0.80
2024-04-11T05:42:50.492Z,0.80
2024-04-11T05:45:18.504Z,1.10
2024-04-11T05:47:46.434Z,0.70
2024-04-11T05:50:16.410Z,0.77
2024-04-11T05:52:43.813Z,0.70
2024-04-11T05:55:11.714Z,0.80
2024-04-11T05:57:38.966Z,0.75
2024-04-11T06:00:10.122Z,0.80
2024-04-11T06:02:39.856Z,1.40
2024-04-11T06:05:09.722Z,0.77
2024-04-11T06:07:36.776Z,0.82
2024-04-11T06:10:06.041Z,1.20
2024-04-11T06:12:34.762Z,0.93
2024-04-11T06:15:04.307Z,0.90
2024-04-11T06:17:31.187Z,1.20
2024-04-11T06:19:58.007Z,1.63
2024-04-11T06:22:24.785Z,0.85
2024-04-11T06:24:51.524Z,1.08
2024-04-11T06:27:18.334Z,1.92
2024-04-11T06:29:45.909Z,1.55
2024-04-11T06:32:16.497Z,2.20
2024-04-11T06:34:45.356Z,2.22
2024-04-11T06:37:12.867Z,3.10
2024-04-11T06:39:42.324Z,2.63
2024-04-11T06:42:14.664Z,2.70
2024-04-11T06:44:42.046Z,3.92
2024-04-11T06:47:15.447Z,2.72
2024-04-11T06:49:49.228Z,3.30
2024-04-11T06:52:17.635Z,3.78
2024-04-11T06:54:48.081Z,2.67
2024-04-11T06:57:15.923Z,2.55
2024-04-11T06:59:42.683Z,2.47
2024-04-11T07:02:09.409Z,2.38
2024-04-11T07:04:36.173Z,2.90
2024-04-11T07:07:09.812Z,3.35
2024-04-11T07:09:39.429Z,2.92
2024-04-11T07:12:12.194Z,2.80
2024-04-11T07:14:41.399Z,2.55
2024-04-11T07:17:13.284Z,3.08
2024-04-11T07:19:40.634Z,2.50
2024-04-11T07:22:10.552Z,2.70
2024-04-11T07:24:40.137Z,2.92
2024-04-11T07:27:12.976Z,3.65
2024-04-11T07:29:40.028Z,2.85
2024-04-11T07:32:07.125Z,3.50
2024-04-11T07:34:35.232Z,2.88
2024-04-11T07:37:01.995Z,4.03
2024-04-11T07:39:28.767Z,3.72
2024-04-11T07:42:02.413Z,3.10
2024-04-11T07:44:29.656Z,3.20
2024-04-11T07:47:06.530Z,3.67
2024-04-11T07:49:43.078Z,3.97
2024-04-11T07:52:12.285Z,2.50
2024-04-11T07:54:46.766Z,3.95
2024-04-11T07:57:15.169Z,3.45
2024-04-11T07:59:43.167Z,3.38
2024-04-11T08:02:11.853Z,3.05
2024-04-11T08:04:38.672Z,4.10
2024-04-11T08:07:06.316Z,3.05
2024-04-11T08:09:46.406Z,4.30
2024-04-11T08:12:15.408Z,4.13
2024-04-11T08:14:42.480Z,4.30
2024-04-11T08:17:15.253Z,3.72
2024-04-11T08:19:51.810Z,4.35
2024-04-11T08:22:24.627Z,3.70
2024-04-11T08:24:51.335Z,4.75
2024-04-11T08:27:20.055Z,3.60
2024-04-11T08:29:48.160Z,4.05
2024-04-11T08:32:15.116Z,3.63
2024-04-11T08:34:42.995Z,3.55
2024-04-11T08:37:09.889Z,2.53
2024-04-11T08:39:36.608Z,3.17
2024-04-11T08:42:03.650Z,3.10
2024-04-11T08:44:31.859Z,4.03
2024-04-11T08:46:59.848Z,3.40
2024-04-11T08:49:27.089Z,3.58
2024-04-11T08:51:55.475Z,2.83
2024-04-11T08:54:26.188Z,3.63
2024-04-11T08:56:53.763Z,2.72
2024-04-11T08:59:25.401Z,3.67
2024-04-11T09:01:52.591Z,3.08
2024-04-11T09:04:20.233Z,4.22
2024-04-11T09:06:50.760Z,3.83
2024-04-11T09:09:20.571Z,3.35
2024-04-11T09:11:47.969Z,4.10
2024-04-11T09:14:16.052Z,3.42
2024-04-11T09:16:43.677Z,4.30
2024-04-11T09:19:11.202Z,3.70
2024-04-11T09:21:48.020Z,3.90
2024-04-11T09:24:19.909Z,3.30
2024-04-11T09:26:51.348Z,3.13
2024-04-11T09:29:23.320Z,3.25
2024-04-11T09:31:58.270Z,3.67
2024-04-11T09:34:31.345Z,2.92
2024-04-11T09:39:48.931Z,2.72
2024-04-11T09:42:20.168Z,3.25
2024-04-11T09:44:57.464Z,3.92
2024-04-11T09:47:29.390Z,2.63
2024-04-11T09:50:06.637Z,4.40
2024-04-11T09:52:38.867Z,4.18
2024-04-11T09:55:09.528Z,3.60
2024-04-11T09:57:40.537Z,3.97
2024-04-11T10:00:11.609Z,4.15
2024-04-11T10:02:40.296Z,3.35
2024-04-11T10:05:07.762Z,3.80
2024-04-11T10:07:43.058Z,3.15
2024-04-11T10:10:27.227Z,5.07
2024-04-11T10:12:54.465Z,3.50
2024-04-11T10:15:23.416Z,3.78
2024-04-11T10:18:12.436Z,3.17
2024-04-11T10:20:41.455Z,4.00
2024-04-11T10:23:11.340Z,3.85
2024-04-11T10:25:39.527Z,3.80
2024-04-11T10:28:19.822Z,4.07
2024-04-11T10:30:52.844Z,4.13
2024-04-11T10:33:31.308Z,3.65
2024-04-11T10:35:58.744Z,4.35
2024-04-11T10:38:29.529Z,4.22
2024-04-11T10:40:57.629Z,3.95
2024-04-11T10:43:29.538Z,5.00
2024-04-11T10:45:58.500Z,3.60
2024-04-11T10:48:26.268Z,2.90
2024-04-11T10:50:53.373Z,2.90
2024-04-11T10:53:26.351Z,3.50
2024-04-11T10:58:29.389Z,4.07
2024-04-11T11:01:03.082Z,3.67
2024-04-11T11:03:50.323Z,3.85
2024-04-11T11:06:41.912Z,3.13
2024-04-11T11:09:15.243Z,2.80
2024-04-11T11:11:43.614Z,3.75
2024-04-11T11:14:11.628Z,2.65
2024-04-11T11:16:39.490Z,3.15
2024-04-11T11:19:09.511Z,3.15
2024-04-11T11:21:40.943Z,3.47
2024-04-11T11:24:08.247Z,3.17
2024-04-11T11:26:45.275Z,3.28
2024-04-11T11:29:21.777Z,3.60
2024-04-11T11:31:51.934Z,4.07
2024-04-11T11:34:28.440Z,3.45
2024-04-11T11:37:01.304Z,3.38
2024-04-11T11:42:10.349Z,3.67
2024-04-11T11:44:57.386Z,3.42
2024-04-11T11:47:35.512Z,3.38
2024-04-11T11:50:10.930Z,3.85
2024-04-11T11:52:44.238Z,3.63
2024-04-11T11:55:18.750Z,3.20
2024-04-11T11:57:53.128Z,3.00
2024-04-11T12:00:30.429Z,3.95
2024-04-11T12:02:58.099Z,2.97
2024-04-11T12:05:27.234Z,3.38
2024-04-11T12:07:55.322Z,2.72
2024-04-11T12:10:49.075Z,3.35
2024-04-11T12:13:32.129Z,3.03
2024-04-11T12:15:59.595Z,3.30
2024-04-11T12:18:26.826Z,3.30
2024-04-11T12:20:54.207Z,3.67
2024-04-11T12:23:21.968Z,3.40
2024-04-11T12:25:51.134Z,3.10
2024-04-11T12:28:22.274Z,4.18
2024-04-11T12:31:06.960Z,3.92
2024-04-11T12:33:45.978Z,4.32
2024-04-11T12:36:32.463Z,4.15
2024-04-11T12:39:13.641Z,4.38
2024-04-11T12:41:45.455Z,4.72
2024-04-11T12:44:15.155Z,4.22
2024-04-11T12:46:54.551Z,5.47
2024-04-11T12:49:27.985Z,4.07
2024-04-11T12:52:02.418Z,5.15
2024-04-11T12:54:32.369Z,4.32
2024-04-11T12:57:11.740Z,4.22
2024-04-11T12:59:38.717Z,4.18
2024-04-11T13:02:10.206Z,4.00
2024-04-11T13:04:38.935Z,3.88
2024-04-11T13:07:13.395Z,4.72
2024-04-11T13:09:57.844Z,4.20
2024-04-11T13:12:30.299Z,4.03
2024-04-11T13:14:59.358Z,4.60
2024-04-11T13:17:26.563Z,4.60
2024-04-11T13:20:00.039Z,5.40
2024-04-11T13:22:27.434Z,3.38
2024-04-11T13:25:11.936Z,4.97
2024-04-11T13:27:39.037Z,4.28
2024-04-11T13:30:15.897Z,4.50
2024-04-11T13:32:47.240Z,4.40
2024-04-11T13:35:15.730Z,4.63
2024-04-11T13:37:49.030Z,4.97
2024-04-11T13:40:27.957Z,5.13
2024-04-11T13:43:00.904Z,4.15
2024-04-11T13:45:27.784Z,4.82
2024-04-11T13:48:02.123Z,4.63
2024-04-11T13:50:52.566Z,4.90
2024-04-11T13:53:22.648Z,4.75
2024-04-11T13:55:55.366Z,5.35
2024-04-11T13:58:25.392Z,5.22
2024-04-11T14:00:53.308Z,4.93
2024-04-11T14:03:38.366Z,4.78
2024-04-11T14:06:28.204Z,4.25
2024-04-11T14:08:56.312Z,4.32
2024-04-11T14:11:26.957Z,4.55
2024-04-11T14:13:58.061Z,4.10
2024-04-11T14:16:36.044Z,4.00
2024-04-11T14:19:08.920Z,4.00
2024-04-11T14:24:50.283Z,3.35
2024-04-11T14:27:16.952Z,3.65
2024-04-11T14:29:43.704Z,3.60
2024-04-11T14:32:11.780Z,3.15
2024-04-11T14:34:57.167Z,3.55
2024-04-11T14:37:34.014Z,3.97
2024-04-11T14:40:06.229Z,3.95
2024-04-11T14:42:35.749Z,2.95
2024-04-11T14:45:08.301Z,4.25
2024-04-11T14:47:35.549Z,3.83
2024-04-11T14:50:04.284Z,3.65
2024-04-11T14:52:34.693Z,3.85
2024-04-11T14:55:01.445Z,4.68
2024-04-11T14:57:31.118Z,4.38
2024-04-11T15:00:01.238Z,3.72
2024-04-11T15:02:30.689Z,4.75
2024-04-11T15:05:12.173Z,4.57
2024-04-11T15:07:39.077Z,4.55
2024-04-11T15:10:18.771Z,3.58
2024-04-11T15:12:51.069Z,3.60
2024-04-11T15:15:23.924Z,5.32
2024-04-11T15:18:01.270Z,4.65
2024-04-11T15:20:49.546Z,4.05
2024-04-11T15:23:17.775Z,4.70
2024-04-11T15:25:47.968Z,4.25
2024-04-11T15:28:24.257Z,3.97
2024-04-11T15:30:54.532Z,4.45
2024-04-11T15:33:31.177Z,4.15
2024-04-11T15:35:58.524Z,4.10
2024-04-11T15:38:30.452Z,4.15
2024-04-11T15:40:57.573Z,4.57
2024-04-11T15:43:30.259Z,3.38
2024-04-11T15:46:09.213Z,3.47
2024-04-11T15:48:38.161Z,4.07
2024-04-11T15:51:05.925Z,3.40
2024-04-11T15:53:37.635Z,4.47
2024-04-11T15:56:05.117Z,4.80
2024-04-11T15:58:37.650Z,3.30
2024-04-11T16:01:12.536Z,2.90
2024-04-11T16:03:40.186Z,3.67
2024-04-11T16:06:11.626Z,4.40
2024-04-11T16:08:45.126Z,3.20
2024-04-11T16:11:15.352Z,4.00
2024-04-11T16:13:44.047Z,3.30
2024-04-11T16:16:11.714Z,2.97
2024-04-11T16:18:40.951Z,3.35
2024-04-11T16:21:15.594Z,3.90
2024-04-11T16:24:09.993Z,3.45
2024-04-11T16:26:41.407Z,3.20
2024-04-11T16:29:08.816Z,3.55
2024-04-11T16:31:40.116Z,3.17
2024-04-11T16:34:08.783Z,3.15
2024-04-11T16:36:55.973Z,3.00
2024-04-11T16:39:32.224Z,2.67
2024-04-11T16:42:07.494Z,3.33
2024-04-11T16:44:38.017Z,2.75
2024-04-11T16:47:04.893Z,2.38
2024-04-11T16:49:37.448Z,2.67
2024-04-11T16:52:09.382Z,2.83
2024-04-11T16:54:52.523Z,2.33
2024-04-11T16:57:19.249Z,2.58
2024-04-11T16:59:46.624Z,2.92
2024-04-11T17:02:14.074Z,2.85
2024-04-11T17:04:47.196Z,3.13
2024-04-11T17:09:45.598Z,3.03
2024-04-11T17:12:18.823Z,3.13
2024-04-11T17:14:54.887Z,3.60
2024-04-11T17:17:30.786Z,2.17
2024-04-11T17:20:16.743Z,2.92
2024-04-11T17:23:02.916Z,2.58
2024-04-11T17:25:43.782Z,2.70
2024-04-11T17:28:20.854Z,2.38
2024-04-11T17:31:00.192Z,2.00
2024-04-11T17:33:37.391Z,1.85
2024-04-11T17:36:23.730Z,2.10
2024-04-11T17:39:02.261Z,1.85
2024-04-11T17:41:38.079Z,2.63
2024-04-11T17:44:14.116Z,1.83
2024-04-11T17:47:15.219Z,1.73
2024-04-11T17:49:57.096Z,1.88
2024-04-11T17:52:25.805Z,1.70
2024-04-11T17:54:53.082Z,2.45
2024-04-11T17:57:21.738Z,2.03
2024-04-11T17:59:49.799Z,2.47
2024-04-11T18:02:22.913Z,1.90
2024-04-11T18:04:53.069Z,1.55
2024-04-11T18:07:26.460Z,1.92
2024-04-11T18:09:57.456Z,1.80
2024-04-11T18:12:26.640Z,1.80
2024-04-11T18:14:53.371Z,1.65
2024-04-11T18:17:23.646Z,1.55
2024-04-11T18:19:51.451Z,1.70
2024-04-11T18:22:24.681Z,2.00
2024-04-11T18:24:54.736Z,2.22
2024-04-11T18:27:21.478Z,1.60
2024-04-11T18:29:56.728Z,1.70
2024-04-11T18:32:32.433Z,1.73
2024-04-11T18:34:59.423Z,1.80
2024-04-11T18:37:27.133Z,1.65
2024-04-11T18:40:04.173Z,1.80
2024-04-11T18:42:45.733Z,1.75
2024-04-11T18:45:31.323Z,2.10
2024-04-11T18:48:00.416Z,1.95
2024-04-11T18:50:34.905Z,2.00
2024-04-11T18:53:08.738Z,2.00
2024-04-11T18:55:56.657Z,1.80
2024-04-11T18:58:28.996Z,1.70
2024-04-11T19:00:58.325Z,1.85
2024-04-11T19:03:29.407Z,2.30
2024-04-11T19:06:06.196Z,2.22
2024-04-11T19:08:34.445Z,1.83
2024-04-11T19:11:14.946Z,1.65
2024-04-11T19:13:45.406Z,1.80
2024-04-11T19:16:13.591Z,1.88
2024-04-11T19:18:44.049Z,1.83
2024-04-11T19:21:18.335Z,2.03
2024-04-11T19:23:49.979Z,1.67
2024-04-11T19:26:19.157Z,1.83
2024-04-11T19:28:46.203Z,2.60
2024-04-11T19:31:21.864Z,2.15
2024-04-11T19:33:52.656Z,1.83
2024-04-11T19:36:23.488Z,2.20
2024-04-11T19:38:56.882Z,1.58
2024-04-11T19:41:26.675Z,1.70
2024-04-11T19:43:53.453Z,1.65
2024-04-11T19:46:24.936Z,1.55
2024-04-11T19:48:54.254Z,1.23
2024-04-11T19:51:24.716Z,1.55
2024-04-11T19:53:55.871Z,1.05
2024-04-11T19:56:35.686Z,1.50
2024-04-11T19:59:03.335Z,1.60
2024-04-11T20:01:39.453Z,1.63
2024-04-11T20:04:20.771Z,1.52
2024-04-11T20:06:48.551Z,1.27
2024-04-11T20:09:18.298Z,1.60
2024-04-11T20:11:51.267Z,1.98
2024-04-11T20:17:18.111Z,1.48
2024-04-11T20:19:48.588Z,1.48
2024-04-11T20:22:22.978Z,1.83
2024-04-11T20:24:56.228Z,1.63
2024-04-11T20:27:30.822Z,1.48
2024-04-11T20:29:58.137Z,1.80
2024-04-11T20:32:31.316Z,1.77
2024-04-11T20:37:52.412Z,1.48
2024-04-11T20:40:26.736Z,1.42
2024-04-11T20:43:02.274Z,1.67
2024-04-11T20:45:31.415Z,1.48
2024-04-11T20:48:30.409Z,1.63
2024-04-11T20:51:16.005Z,2.20
2024-04-11T20:54:01.940Z,1.80
2024-04-11T20:56:47.378Z,2.03
2024-04-11T20:59:32.688Z,2.45
2024-04-11T21:02:18.032Z,2.47
2024-04-11T21:05:05.011Z,2.83
2024-04-11T21:07:50.619Z,2.88
2024-04-11T21:10:36.077Z,2.45
2024-04-11T21:13:21.329Z,2.65
2024-04-11T21:16:09.743Z,2.35
2024-04-11T21:18:55.365Z,2.70
2024-04-11T21:21:41.143Z,2.97
2024-04-11T21:24:26.871Z,2.85
2024-04-11T21:27:12.244Z,2.63
2024-04-11T21:29:57.534Z,2.92
2024-04-11T21:32:43.086Z,2.60
2024-04-11T21:35:11.425Z,2.80
2024-04-11T21:37:38.195Z,3.53
2024-04-11T21:40:15.174Z,3.08
2024-04-11T21:42:42.514Z,3.08
2024-04-11T21:45:20.663Z,2.20
2024-04-11T21:47:48.163Z,3.85
2024-04-11T21:50:18.280Z,2.72
2024-04-11T21:52:52.583Z,3.30
2024-04-11T21:55:22.372Z,2.63
2024-04-11T21:57:49.998Z,2.90
2024-04-11T22:00:40.119Z,3.88
2024-04-11T22:03:08.959Z,2.95
2024-04-11T22:05:43.339Z,4.43
2024-04-11T22:08:12.589Z,3.58
2024-04-11T22:10:45.235Z,3.03
2024-04-11T22:13:19.390Z,3.50
2024-04-11T22:15:47.442Z,3.53
2024-04-11T22:18:31.161Z,3.83
2024-04-11T22:21:13.277Z,3.85
2024-04-11T22:23:46.259Z,3.20
2024-04-11T22:28:49.211Z,3.67
2024-04-11T22:31:16.473Z,3.85
2024-04-11T22:33:44.844Z,4.38
2024-04-11T22:36:25.944Z,3.50
2024-04-11T22:38:57.429Z,3.42
2024-04-11T22:41:25.118Z,2.97
2024-04-11T22:43:58.427Z,4.20
2024-04-11T22:46:35.947Z,3.05
2024-04-11T22:49:14.481Z,2.70
2024-04-11T22:51:43.666Z,4.30
2024-04-11T22:54:24.528Z,3.97
2024-04-11T22:56:52.397Z,4.82
2024-04-11T22:59:36.754Z,4.70
2024-04-11T23:02:11.723Z,4.28
2024-04-11T23:04:48.440Z,4.28
2024-04-11T23:07:41.381Z,4.88
2024-04-11T23:10:20.723Z,4.60
2024-04-11T23:12:53.406Z,4.45
2024-04-11T23:15:25.149Z,3.70
2024-04-11T23:17:56.765Z,3.80
2024-04-11T23:20:28.831Z,4.68
2024-04-11T23:22:57.903Z,3.78
2024-04-11T23:25:25.935Z,3.13
2024-04-11T23:27:54.144Z,3.78
2024-04-11T23:30:38.520Z,3.17
2024-04-11T23:33:06.995Z,3.30
2024-04-11T23:35:34.266Z,2.67
2024-04-11T23:38:07.481Z,3.80
2024-04-11T23:40:41.727Z,2.97
2024-04-11T23:43:11.623Z,3.28
2024-04-11T23:45:39.655Z,3.70
2024-04-11T23:48:07.731Z,3.17
2024-04-11T23:50:40.579Z,3.10
2024-04-11T23:53:16.937Z,2.72
2024-04-11T23:56:05.863Z,2.70
2024-04-11T23:58:43.079Z,3.05
